• Join FlightAware (Why Join?)
  • Login
  • US Flag 
12:54AM EDT


 

Airport Tracker/Info


-or-


 

Live Flight TrackerFlight Track Log ✈ MAS370 ✈ 13-Jun-2013 ✈ WMKK / KUL - ZBAA / PEK

Flight Track Log - Related Links

Times and Time Zones

All times are in EDT time to prevent confusion due to time zone crossing. See the MAS370 flight status page for this flight to view local times or setup timezone preferences in your user account.

Time Position Orientation Groundspeed Altitude Reporting Facility
EDT Latitude Longitude Course Direction KTS MPH feet Rate Location/Type
12:43PM 2.8340 101.6670 327° Northwest 200 230 1,800  Level FlightAware
12:44PM 2.8770 101.6480 336° Northwest 249 287 3,200 1,740 Climbing FlightAware
12:44PM 2.9060 101.6560 15° North 269 310 3,700 660 Climbing FlightAware
12:45PM 2.9320 101.6690 27° Northeast 295 339 3,800 540 Climbing FlightAware
12:45PM 2.9870 101.6950 25° Northeast 339 390 4,300 720 Climbing FlightAware
12:46PM 3.0040 101.7030 25° Northeast 353 406 4,400 1,560 Climbing FlightAware
12:46PM 3.0520 101.7260 26° Northeast 363 418 5,400 1,860 Climbing FlightAware
12:46PM 3.0820 101.7410 27° Northeast 367 422 6,000 1,980 Climbing FlightAware
12:47PM 3.1050 101.7520 26° Northeast 368 423 6,600 1,980 Climbing FlightAware
12:47PM 3.1540 101.7750 25° Northeast 372 428 7,500 1,740 Climbing FlightAware
12:48PM 3.2130 101.8030 25° Northeast 382 440 8,700 1,800 Climbing FlightAware
12:48PM 3.2500 101.8210 26° Northeast 386 444 9,300 1,560 Climbing FlightAware
12:49PM 3.2830 101.8360 24° Northeast 390 449 9,800 1,980 Climbing FlightAware
12:49PM 3.3650 101.8760 26° Northeast 388 447 11,700 2,460 Climbing FlightAware
12:50PM 3.4510 101.9170 25° Northeast 397 457 13,900 2,340 Climbing FlightAware
12:51PM 3.5220 101.9510 26° Northeast 412 474 15,400 2,100 Climbing FlightAware
12:52PM 3.5920 101.9840 25° Northeast 422 486 16,900 2,100 Climbing FlightAware
12:52PM 3.6750 102.0230 25° Northeast 434 499 18,500 2,100 Climbing FlightAware
12:53PM 3.7320 102.0500 25° Northeast 437 503 19,700 1,080 Climbing FlightAware
12:54PM 3.8050 102.0850 26° Northeast 437 503 20,000 180 Climbing FlightAware
12:54PM 3.8600 102.1100 24° Northeast 437 503 20,000  Level FlightAware
12:55PM 3.9350 102.1450 25° Northeast 437 503 20,000  Level FlightAware
12:56PM 3.9910 102.1710 25° Northeast 437 503 20,000  Level FlightAware
12:57PM 4.0650 102.2060 25° Northeast 437 503 20,000 5,040 Level FlightAware
12:57PM 4.2370 102.2910 26° Northeast 463 533 27,800 6,180 Climbing FlightAware
12:58PM 4.3180 102.3300 26° Northeast 467 537 28,800 1,320 Climbing FlightAware
12:59PM 4.3820 102.3600 25° Northeast 469 540 29,500 1,200 Climbing FlightAware
12:59PM 4.4890 102.4110 25° Northeast 475 547 30,500 1,020 Climbing FlightAware
01:00PM 4.5510 102.4410 26° Northeast 481 554 31,000 660 Climbing FlightAware
01:01PM 4.6560 102.4910 25° Northeast 493 567 31,500 720 Climbing FlightAware
01:02PM 4.7330 102.5280 26° Northeast 497 572 32,100 1,200 Climbing FlightAware
01:02PM 4.8210 102.5700 25° Northeast 493 567 33,200 1,440 Climbing FlightAware
01:03PM 4.9100 102.6130 26° Northeast 491 565 34,000 1,200 Climbing FlightAware
01:04PM 4.9950 102.6530 25° Northeast 489 563 34,900 1,500 Climbing FlightAware
01:04PM 5.0930 102.7000 26° Northeast 472 543 36,300 1,560 Climbing FlightAware
01:05PM 5.1520 102.7280 25° Northeast 462 532 37,000 420 Climbing FlightAware
01:06PM 5.2750 102.7860 25° Northeast 458 527 37,000  Level FlightAware
01:06PM 5.3320 102.8140 26° Northeast 457 526 37,000  Level FlightAware
01:07PM 5.2880 102.7930 205° Southwest 456 525 37,000  Level FlightAware
01:08PM 5.3530 102.8240 25° Northeast 456 525 37,000  Level FlightAware
01:08PM 5.5560 102.9220 26° Northeast 457 526 37,000  Level FlightAware
01:09PM 5.6570 102.9700 25° Northeast 457 526 37,000  Level FlightAware
01:10PM 5.7250 103.0020 25° Northeast 458 527 37,000  Level FlightAware
01:11PM 5.8120 103.0440 26° Northeast 458 527 37,000  Level FlightAware
01:11PM 5.9000 103.0860 25° Northeast 458 527 37,000  Level FlightAware
01:12PM 5.9660 103.1180 26° Northeast 458 527 37,000  Level FlightAware
01:13PM 6.0510 103.1590 26° Northeast 458 527 37,000  Level FlightAware
01:13PM 6.1330 103.1990 26° Northeast 458 527 37,000  Level FlightAware
01:14PM 6.2070 103.2340 25° Northeast 458 527 37,000  Level FlightAware
01:15PM 6.2970 103.2770 25° Northeast 458 527 37,000  Level FlightAware
01:16PM 6.3950 103.3240 25° Northeast 458 527 37,000  Level FlightAware
01:16PM 6.4640 103.3580 26° Northeast 457 526 37,000  Level FlightAware
01:18PM 6.5460 103.3960 25° Northeast 457 526 37,000  Level FlightAware
01:18PM 6.6010 103.4220 25° Northeast 457 526 37,000  Level FlightAware
01:19PM 6.6790 103.4580 25° Northeast 457 526 37,000  Level FlightAware
01:20PM 6.7360 103.4850 25° Northeast 457 526 37,000  Level FlightAware
01:21PM 6.8030 103.5170 25° Northeast 457 526 37,000  Level FlightAware
01:21PM 6.8810 103.5530 25° Northeast 457 526 37,000  Level FlightAware
01:22PM 6.9400 103.5810 25° Northeast 457 526 37,000  Level FlightAware
01:23PM 7.0200 103.6180 25° Northeast 457 526 37,000  Level FlightAware
01:23PM 7.0800 103.6470 26° Northeast 457 526 37,000  Level FlightAware
01:24PM 7.1470 103.6780 25° Northeast 457 526 37,000  Level FlightAware
01:25PM 7.2230 103.7140 25° Northeast 457 526 37,000  Level FlightAware
01:25PM 7.2870 103.7440 25° Northeast 457 526 37,000  Level FlightAware
01:26PM 7.3630 103.7800 25° Northeast 457 526 37,000  Level FlightAware
01:27PM 7.4240 103.8080 24° Northeast 457 526 37,000  Level FlightAware
01:30PM 7.7164 103.9001 17° North  Level Estimated
01:31PM 7.8281 103.9354 17° North  Level Estimated
01:31PM 8.0300 104.4400 17° North 453 521 37,000  Level FlightAware
01:32PM 7.9399 103.9706 17° North  Level Estimated
01:32PM 8.1190 104.5100 38° Northeast 453 521 37,000  Level FlightAware
01:33PM 8.1690 104.5500 38° Northeast 453 521 37,000  Level FlightAware
01:34PM 8.2560 104.6180 38° Northeast 453 521 37,000  Level FlightAware
01:35PM 8.3070 104.6580 38° Northeast 453 521 37,000  Level FlightAware
01:35PM 8.3560 104.6970 38° Northeast 453 521 37,000  Level FlightAware
01:36PM 8.4840 104.7960 37° Northeast 458 527 37,000  Level FlightAware
01:37PM 8.6270 104.9090 38° Northeast 459 528 37,000  Level FlightAware
01:38PM 8.7080 104.9720 38° Northeast 460 529 37,000  Level FlightAware
01:39PM 8.7770 105.0270 38° Northeast 459 528 37,000  Level FlightAware
01:39PM 8.8500 105.0840 38° Northeast 458 527 37,000  Level FlightAware
01:40PM 8.9170 105.1370 38° Northeast 458 527 37,000  Level FlightAware
01:41PM 8.9870 105.1920 38° Northeast 457 526 37,000  Level FlightAware
01:42PM 9.0610 105.2510 38° Northeast 457 526 37,000  Level FlightAware
01:42PM 9.1310 105.3060 38° Northeast 457 526 37,000  Level FlightAware
01:43PM 9.1850 105.3490 38° Northeast 457 526 37,000  Level FlightAware
01:44PM 9.2600 105.4080 38° Northeast 457 526 37,000  Level FlightAware
01:44PM 9.3420 105.4730 38° Northeast 458 527 37,000  Level FlightAware
01:45PM 9.4120 105.5280 38° Northeast 460 529 37,000  Level FlightAware
01:46PM 9.4750 105.5780 38° Northeast 461 531 37,000  Level FlightAware
01:46PM 9.5460 105.6340 38° Northeast 462 532 37,000  Level FlightAware
01:47PM 9.6170 105.6910 38° Northeast 463 533 37,000  Level FlightAware
01:48PM 9.6900 105.7480 38° Northeast 464 534 37,000  Level FlightAware
01:49PM 9.7630 105.8060 38° Northeast 465 535 37,000  Level FlightAware
01:49PM 9.8270 105.8570 38° Northeast 467 537 37,000  Level FlightAware
01:50PM 9.8660 105.8880 38° Northeast 468 539 37,000  Level FlightAware
01:50PM 9.9640 105.9660 38° Northeast 470 541 37,000  Level FlightAware
01:51PM 10.0410 106.0270 38° Northeast 472 543 37,000  Level FlightAware
01:52PM 10.1050 106.0780 38° Northeast 473 544 37,000  Level FlightAware
01:53PM 10.1790 106.1370 38° Northeast 473 544 37,000  Level FlightAware
01:53PM 10.2480 106.1910 38° Northeast 474 545 37,000  Level FlightAware
01:54PM 10.3310 106.2580 38° Northeast 473 544 37,000  Level FlightAware
01:55PM 10.3990 106.3120 38° Northeast 473 544 37,000  Level FlightAware
01:55PM 10.4720 106.3700 38° Northeast 472 543 37,000  Level FlightAware
01:56PM 10.5450 106.4260 37° Northeast 473 544 37,000  Level FlightAware
01:57PM 10.6160 106.4790 36° Northeast 472 543 37,000  Level FlightAware
01:57PM 10.6930 106.5370 37° Northeast 471 542 37,000  Level FlightAware
01:58PM 10.7660 106.5930 37° Northeast 470 541 37,000  Level FlightAware
01:59PM 10.8330 106.6430 36° Northeast 468 539 37,000  Level FlightAware
02:00PM 10.9080 106.7000 37° Northeast 468 539 37,000  Level FlightAware
02:01PM 11.0360 106.7970 37° Northeast 468 539 37,000  Level FlightAware
02:01PM 11.1100 106.8530 37° Northeast 470 541 37,000  Level FlightAware
02:02PM 11.1770 106.9040 37° Northeast 470 541 37,000  Level FlightAware
02:03PM 11.2570 106.9650 37° Northeast 472 543 37,000  Level FlightAware
02:04PM 11.3310 107.0210 37° Northeast 472 543 37,000  Level FlightAware
02:04PM 11.4020 107.0750 37° Northeast 473 544 37,000 180 Level FlightAware
02:05PM 11.4740 107.1300 37° Northeast 472 543 37,300 900 Climbing FlightAware
02:06PM 11.5520 107.1890 37° Northeast 463 533 38,300 1,020 Climbing FlightAware
02:06PM 11.6200 107.2410 37° Northeast 464 534 38,800 480 Climbing FlightAware
02:07PM 11.6860 107.2910 37° Northeast 466 536 39,000 120 Climbing FlightAware
02:08PM 11.7680 107.3540 37° Northeast 465 535 39,000  Level FlightAware
02:08PM 11.8380 107.4070 37° Northeast 465 535 39,000  Level FlightAware
02:09PM 11.9120 107.4640 37° Northeast 465 535 39,000  Level FlightAware
02:10PM 11.9840 107.5190 37° Northeast 465 535 39,000  Level FlightAware
02:10PM 12.0500 107.5700 37° Northeast 466 536 39,000  Level FlightAware
02:11PM 12.1310 107.6320 37° Northeast 466 536 39,000  Level FlightAware
02:12PM 12.2180 107.6980 37° Northeast 467 537 39,000  Level FlightAware
02:13PM 12.2780 107.7440 37° Northeast 467 537 39,000  Level FlightAware
02:13PM 12.3580 107.8050 37° Northeast 467 537 39,000  Level FlightAware
02:14PM 12.4330 107.8630 37° Northeast 467 537 39,000  Level FlightAware
02:15PM 12.5070 107.9200 37° Northeast 467 537 39,000  Level FlightAware
02:16PM 12.5810 107.9770 37° Northeast 467 537 39,000  Level FlightAware
02:16PM 12.6530 108.0320 37° Northeast 467 537 39,000  Level FlightAware
02:17PM 12.7270 108.0890 37° Northeast 467 537 39,000  Level FlightAware
02:18PM 12.7880 108.1360 37° Northeast 467 537 39,000  Level FlightAware
02:18PM 12.8610 108.1930 37° Northeast 467 537 39,000  Level FlightAware
02:19PM 12.9140 108.2340 37° Northeast 467 537 39,000  Level FlightAware
02:20PM 12.9980 108.2980 37° Northeast 467 537 39,000  Level FlightAware
02:21PM 13.0650 108.3510 38° Northeast 467 537 39,000  Level FlightAware
02:21PM 13.1180 108.3910 36° Northeast 467 537 39,000  Level FlightAware
02:22PM 13.1890 108.4460 37° Northeast 467 537 39,000  Level FlightAware
02:23PM 13.2410 108.4870 38° Northeast 467 537 39,000  Level FlightAware
02:24PM 13.3120 108.5410 37° Northeast 467 537 39,000  Level FlightAware
02:24PM 13.3670 108.5840 37° Northeast 467 537 39,000  Level FlightAware
02:25PM 13.4260 108.6300 37° Northeast 467 537 39,000  Level FlightAware
02:26PM 13.4990 108.6870 37° Northeast 467 537 39,000  Level FlightAware
02:26PM 13.5520 108.7280 37° Northeast 467 537 39,000  Level FlightAware
02:27PM 13.6240 108.7830 37° Northeast 467 537 39,000  Level FlightAware
02:30PM 13.8996 108.8489 13° North  Level Estimated
02:31PM 14.0136 108.8763 13° North  Level Estimated
02:32PM 14.1276 108.9036 13° North  Level Estimated
02:33PM 14.2416 108.9310 13° North  Level Estimated
02:34PM 14.3556 108.9584 13° North  Level Estimated
02:35PM 14.4697 108.9859 13° North  Level Estimated
02:36PM 14.5837 109.0133 13° North  Level Estimated
02:37PM 14.6977 109.0408 13° North  Level Estimated
02:38PM 14.8117 109.0684 13° North  Level Estimated
02:39PM 14.9257 109.0959 13° North  Level Estimated
02:40PM 15.0397 109.1235 13° North  Level Estimated
02:41PM 15.1537 109.1511 13° North  Level Estimated
02:42PM 15.2677 109.1787 13° North  Level Estimated
02:43PM 15.3816 109.2064 13° North  Level Estimated
02:44PM 15.4956 109.2341 13° North  Level Estimated
02:45PM 15.6096 109.2618 13° North  Level Estimated
02:46PM 15.7236 109.2896 13° North  Level Estimated
02:47PM 15.8376 109.3174 13° North  Level Estimated
02:48PM 15.9515 109.3452 13° North  Level Estimated
02:49PM 16.0655 109.3731 13° North  Level Estimated
02:50PM 16.1794 109.4010 13° North  Level Estimated
02:51PM 16.2934 109.4289 13° North  Level Estimated
02:52PM 16.4074 109.4569 13° North  Level Estimated
02:53PM 16.5213 109.4849 13° North  Level Estimated
02:54PM 16.6353 109.5129 13° North  Level Estimated
02:55PM 16.7492 109.5409 13° North  Level Estimated
02:56PM 16.8631 109.5690 13° North  Level Estimated
02:57PM 16.9771 109.5971 13° North  Level Estimated
02:58PM 17.0910 109.6253 13° North  Level Estimated
02:59PM 17.2049 109.6535 13° North  Level Estimated
03:00PM 17.3189 109.6817 13° North  Level Estimated
03:01PM 17.4328 109.7100 13° North  Level Estimated
03:02PM 17.5467 109.7383 13° North  Level Estimated
03:03PM 17.6606 109.7666 13° North  Level Estimated
03:04PM 17.7745 109.7950 13° North  Level Estimated
03:05PM 17.8884 109.8234 13° North  Level Estimated
03:06PM 18.0023 109.8518 13° North  Level Estimated
03:07PM 18.1162 109.8803 13° North  Level Estimated
03:08PM 18.2301 109.9088 13° North  Level Estimated
03:09PM 18.3440 109.9374 13° North  Level Estimated
03:10PM 18.4579 109.9660 13° North  Level Estimated
03:11PM 18.5718 109.9946 13° North  Level Estimated
03:12PM 18.6856 110.0232 13° North  Level Estimated
03:13PM 18.7995 110.0519 13° North  Level Estimated
03:14PM 18.9134 110.0807 13° North  Level Estimated
03:15PM 19.0272 110.1095 13° North  Level Estimated
03:16PM 19.1411 110.1383 13° North  Level Estimated
03:17PM 19.2549 110.1672 13° North  Level Estimated
03:18PM 19.3688 110.1961 13° North  Level Estimated
03:19PM 19.4826 110.2250 13° North  Level Estimated
03:20PM 19.5965 110.2540 13° North  Level Estimated
03:21PM 19.7103 110.2830 13° North  Level Estimated
03:22PM 19.8241 110.3120 14° North  Level Estimated
03:23PM 19.9380 110.3412 14° North  Level Estimated
03:24PM 20.0518 110.3703 14° North  Level Estimated
03:25PM 20.1656 110.3995 14° North  Level Estimated
03:26PM 20.2794 110.4287 14° North  Level Estimated
03:26PM 20.3330 112.7190 14° North 498 573 39,000  Level FlightAware
03:27PM 20.3932 110.4580 14° North  Level Estimated
03:27PM 20.4180 112.7720 30° Northeast 499 574 39,000  Level FlightAware
03:27PM 20.5030 112.8260 31° Northeast 499 574 39,000  Level FlightAware
03:28PM 20.5900 112.8810 31° Northeast 499 574 39,000  Level FlightAware
03:29PM 20.6690 112.9310 31° Northeast 500 575 39,000  Level FlightAware
03:29PM 20.7500 112.9820 30° Northeast 500 575 39,000  Level FlightAware
03:30PM 20.8620 113.0530 31° Northeast 499 574 39,000  Level FlightAware
03:31PM 20.9530 113.1110 31° Northeast 500 575 39,000  Level FlightAware
03:32PM 21.0200 113.1530 30° Northeast 500 575 39,000  Level FlightAware
03:32PM 21.1170 113.2150 31° Northeast 500 575 39,000  Level FlightAware
03:33PM 21.1990 113.2670 31° Northeast 500 575 39,000  Level FlightAware
03:34PM 21.2840 113.3210 31° Northeast 502 578 39,000  Level FlightAware
03:34PM 21.3680 113.3750 31° Northeast 503 579 39,000  Level FlightAware
03:35PM 21.4550 113.4310 31° Northeast 503 579 39,000  Level FlightAware
03:36PM 21.5330 113.4800 30° Northeast 504 580 39,000 -900 Level FlightAware
03:37PM 21.6240 113.5390 31° Northeast 512 589 37,800 -1,320 Descending FlightAware
03:37PM 21.7090 113.5930 31° Northeast 517 595 37,100 -540 Descending FlightAware
03:38PM 21.7880 113.6440 31° Northeast 520 598 37,100  Level FlightAware
03:39PM 21.9080 113.7220 31° Northeast 520 598 37,100  Level FlightAware
03:40PM 21.9980 113.7800 31° Northeast 522 601 37,100  Level FlightAware
03:40PM 22.0860 113.8360 31° Northeast 523 602 37,100  Level FlightAware
03:41PM 22.1580 113.8830 31° Northeast 523 602 37,100  Level FlightAware
03:42PM 22.2590 113.9480 31° Northeast 524 603 37,100  Level FlightAware
03:42PM 22.3270 113.9920 31° Northeast 524 603 37,100  Level FlightAware
03:43PM 22.4310 114.0600 31° Northeast 525 604 37,100  Level FlightAware
03:44PM 22.5220 114.1060 25° Northeast 520 598 37,100  Level FlightAware
03:45PM 22.6500 114.0790 349° North 504 580 37,100  Level FlightAware
03:45PM 22.7460 114.0300 335° Northwest 502 578 37,100  Level FlightAware
03:46PM 22.8130 113.9950 334° Northwest 501 577 37,100  Level FlightAware
03:47PM 22.9190 113.9400 334° Northwest 500 575 37,100  Level FlightAware
03:47PM 22.9970 113.8990 334° Northwest 499 574 37,100  Level FlightAware
03:48PM 23.0940 113.8510 336° Northwest 500 575 37,100  Level FlightAware
03:49PM 23.1830 113.8140 339° North 501 577 37,100  Level FlightAware
03:50PM 23.2730 113.7790 340° North 502 578 37,100  Level FlightAware
03:50PM 23.3350 113.7540 340° North 503 579 37,100  Level FlightAware
03:51PM 23.4580 113.7060 340° North 504 580 37,100  Level FlightAware
03:52PM 23.5450 113.6710 340° North 504 580 37,100  Level FlightAware
03:52PM 23.6350 113.6360 340° North 505 581 37,100  Level FlightAware
03:53PM 23.7400 113.5940 340° North 505 581 37,100  Level FlightAware
03:54PM 23.8370 113.5560 340° North 505 581 37,100  Level FlightAware
03:55PM 23.9200 113.5220 339° North 504 580 37,100  Level FlightAware
03:55PM 24.0120 113.4860 340° North 504 580 37,100  Level FlightAware
03:56PM 24.1000 113.4510 340° North 503 579 37,100  Level FlightAware
03:57PM 24.2010 113.4200 344° North 513 590 37,100  Level FlightAware
03:57PM 24.3030 113.4180 359° North 519 597 37,100  Level FlightAware
03:58PM 24.4020 113.4210 North 520 598 37,100  Level FlightAware
03:59PM 24.5060 113.4240 North 520 598 37,100  Level FlightAware
03:59PM 24.6060 113.4270 North 520 598 37,100  Level FlightAware
04:00PM 24.6650 113.4290 North 520 598 37,100  Level FlightAware
04:01PM 24.7680 113.4320 North 521 600 37,100  Level FlightAware
04:01PM 24.8510 113.4340 North 520 598 37,100  Level FlightAware
04:02PM 24.9710 113.4370 North 520 598 37,100  Level FlightAware
04:03PM 25.1150 113.4410 North 520 598 37,100  Level FlightAware
04:04PM 25.2100 113.4440 North 519 597 37,100  Level FlightAware
04:04PM 25.3190 113.4470 North 519 597 37,100  Level FlightAware
04:05PM 25.4100 113.4580 North 528 608 37,100  Level FlightAware
04:06PM 25.5080 113.5060 24° Northeast 532 612 37,100  Level FlightAware
04:06PM 25.6180 113.5370 14° North 525 604 37,100  Level FlightAware
04:07PM 25.6960 113.5500 North 525 604 37,100  Level FlightAware
04:08PM 25.7900 113.5670 North 525 604 37,100  Level FlightAware
04:09PM 25.8650 113.5800 North 525 604 37,100  Level FlightAware
04:09PM 25.9610 113.5970 North 525 604 37,100  Level FlightAware
04:10PM 26.0300 113.6090 North 525 604 37,100  Level FlightAware
04:11PM 26.1280 113.6260 North 525 604 37,100  Level FlightAware
04:11PM 26.1990 113.6390 North 525 604 37,100  Level FlightAware
04:12PM 26.2970 113.6560 North 525 604 37,100  Level FlightAware
04:13PM 26.3690 113.6690 North 525 604 37,100  Level FlightAware
04:13PM 26.4670 113.6860 North 525 604 37,100  Level FlightAware
04:14PM 26.5460 113.7000 North 525 604 37,100  Level FlightAware
04:15PM 26.6540 113.7190 North 525 604 37,100  Level FlightAware
04:16PM 26.7600 113.7380 North 525 604 37,100  Level FlightAware
04:16PM 26.8380 113.7520 North 525 604 37,100  Level FlightAware
04:19PM 27.0748 113.7958 North  Level Estimated
04:20PM 27.1903 113.8173 North  Level Estimated
04:21PM 27.3058 113.8388 North  Level Estimated
04:22PM 27.4213 113.8603 North  Level Estimated
04:23PM 27.5368 113.8819 North  Level Estimated
04:24PM 27.6523 113.9035 North  Level Estimated
04:25PM 27.7678 113.9251 North  Level Estimated
04:26PM 27.8832 113.9469 North  Level Estimated
04:27PM 27.9987 113.9686 North  Level Estimated
04:28PM 28.1142 113.9904 North  Level Estimated
04:29PM 28.2297 114.0123 North  Level Estimated
04:30PM 28.3451 114.0342 North  Level Estimated
04:31PM 28.4606 114.0561 North  Level Estimated
04:32PM 28.5761 114.0781 North  Level Estimated
04:33PM 28.6915 114.1002 10° North  Level Estimated
04:34PM 28.8070 114.1223 10° North  Level Estimated
04:35PM 28.9224 114.1444 10° North  Level Estimated
04:36PM 29.0379 114.1666 10° North  Level Estimated
04:37PM 29.1533 114.1888 10° North  Level Estimated
04:38PM 29.2688 114.2111 10° North  Level Estimated
04:39PM 29.3842 114.2335 10° North  Level Estimated
04:40PM 29.4996 114.2559 10° North  Level Estimated
04:41PM 29.6151 114.2783 10° North  Level Estimated
04:42PM 29.7305 114.3008 10° North  Level Estimated
04:43PM 29.8459 114.3233 10° North  Level Estimated
04:44PM 29.9613 114.3459 10° North  Level Estimated
04:45PM 30.0767 114.3686 10° North  Level Estimated
04:46PM 30.1922 114.3913 10° North  Level Estimated
04:47PM 30.3076 114.4140 10° North  Level Estimated
04:48PM 30.4230 114.4369 10° North  Level Estimated
04:49PM 30.5384 114.4597 10° North  Level Estimated
04:50PM 30.6538 114.4827 10° North  Level Estimated
04:51PM 30.7691 114.5056 10° North  Level Estimated
04:52PM 30.8845 114.5286 10° North  Level Estimated
04:53PM 30.9999 114.5517 10° North  Level Estimated
04:54PM 31.1153 114.5749 10° North  Level Estimated
04:55PM 31.2307 114.5981 10° North  Level Estimated
04:56PM 31.3460 114.6213 10° North  Level Estimated
04:57PM 31.4614 114.6446 10° North  Level Estimated
04:58PM 31.5768 114.6680 10° North  Level Estimated
04:59PM 31.6921 114.6914 10° North  Level Estimated
05:00PM 31.8075 114.7149 10° North  Level Estimated
05:01PM 31.9228 114.7385 10° North  Level Estimated
05:02PM 32.0382 114.7621 10° North  Level Estimated
05:03PM 32.1535 114.7857 10° North  Level Estimated
05:04PM 32.2688 114.8094 10° North  Level Estimated
05:05PM 32.3842 114.8332 10° North  Level Estimated
05:06PM 32.4995 114.8571 10° North  Level Estimated
05:07PM 32.6148 114.8810 10° North  Level Estimated
05:08PM 32.7301 114.9049 10° North  Level Estimated
05:09PM 32.8455 114.9290 10° North  Level Estimated
05:10PM 32.9608 114.9531 10° North  Level Estimated
05:11PM 33.0761 114.9772 10° North  Level Estimated
05:12PM 33.1914 115.0014 10° North  Level Estimated
05:13PM 33.3067 115.0257 10° North  Level Estimated
05:14PM 33.4220 115.0501 10° North  Level Estimated
05:15PM 33.5372 115.0745 10° North  Level Estimated
05:16PM 33.6525 115.0990 10° North  Level Estimated
05:17PM 33.7678 115.1235 10° North  Level Estimated
05:18PM 33.8831 115.1481 10° North  Level Estimated
05:19PM 33.9983 115.1728 10° North  Level Estimated
05:20PM 34.1136 115.1975 10° North  Level Estimated
05:21PM 34.2289 115.2223 10° North  Level Estimated
05:22PM 34.3441 115.2472 10° North  Level Estimated
05:23PM 34.4594 115.2721 10° North  Level Estimated
05:24PM 34.5746 115.2972 10° North  Level Estimated
05:25PM 34.6898 115.3222 10° North  Level Estimated
05:26PM 34.8051 115.3474 10° North  Level Estimated
05:27PM 34.9203 115.3726 10° North  Level Estimated
05:28PM 35.0355 115.3979 10° North  Level Estimated
05:29PM 35.1507 115.4233 10° North  Level Estimated
05:30PM 35.2659 115.4487 10° North  Level Estimated
05:31PM 35.3811 115.4742 10° North  Level Estimated
05:32PM 35.4963 115.4998 10° North  Level Estimated
05:33PM 35.6115 115.5255 10° North  Level Estimated
05:34PM 35.7267 115.5512 10° North  Level Estimated
05:35PM 35.8419 115.5770 10° North  Level Estimated
05:36PM 35.9571 115.6029 10° North  Level Estimated
05:37PM 36.0722 115.6288 10° North  Level Estimated
05:38PM 36.1874 115.6549 10° North  Level Estimated
05:39PM 36.3026 115.6810 10° North  Level Estimated
05:40PM 36.4177 115.7072 10° North  Level Estimated
05:41PM 36.5329 115.7334 10° North  Level Estimated
05:42PM 36.6480 115.7598 10° North  Level Estimated
05:43PM 36.7631 115.7862 10° North  Level Estimated
05:44PM 36.8783 115.8127 10° North  Level Estimated
05:45PM 36.9934 115.8393 10° North  Level Estimated
05:46PM 37.1085 115.8659 10° North  Level Estimated
05:47PM 37.2236 115.8927 10° North  Level Estimated
05:48PM 37.3387 115.9195 10° North  Level Estimated
05:49PM 37.4538 115.9464 11° North  Level Estimated
05:50PM 37.5689 115.9734 11° North  Level Estimated
05:51PM 37.6840 116.0005 11° North  Level Estimated
05:52PM 37.7991 116.0276 11° North  Level Estimated
05:53PM 37.9142 116.0549 11° North  Level Estimated
05:54PM 38.0292 116.0822 11° North  Level Estimated
05:55PM 38.1443 116.1096 11° North  Level Estimated
05:56PM 38.2594 116.1371 11° North  Level Estimated
05:57PM 38.3744 116.1647 11° North  Level Estimated
05:58PM 38.4894 116.1924 11° North  Level Estimated
05:59PM 38.6045 116.2201 11° North  Level Estimated
06:00PM 38.7195 116.2480 11° North  Level Estimated
06:01PM 38.8345 116.2759 11° North  Level Estimated
06:02PM 38.9496 116.3039 11° North  Level Estimated
06:03PM 39.0646 116.3321 11° North  Level Estimated
06:04PM 39.1796 116.3603 11° North  Level Estimated
06:05PM 39.2946 116.3886 11° North  Level Estimated
06:06PM 39.4096 116.4170 11° North  Level Estimated
06:07PM 39.5245 116.4455 11° North  Level Estimated
06:08PM 39.6395 116.4741 11° North  Level Estimated
06:09PM 39.7545 116.5028 11° North  Level Estimated
06:10PM 39.8694 116.5316 11° North  Level Estimated
06:11PM 39.9844 116.5604 11° North  Level Estimated
06:12PM 40.0801 116.5846 11° North  Level Estimated
06:13PM 40.0801 116.5846 288° West  Level Estimated
06:14PM 40.0801 116.5846 288° West  Level Estimated
06:15PM 40.0801 116.5846 288° West  Level Estimated
06:16PM 40.0801 116.5846 288° West  Level Estimated
06:17PM 40.0801 116.5846 288° West  Level Estimated
06:18PM 40.0801 116.5846 288° West  Level Estimated
06:19PM 40.0801 116.5846 288° West  Level Estimated
06:20PM 40.0801 116.5846 288° West  Level Estimated
06:21PM 40.0801 116.5846 288° West  Level Estimated
06:22PM 40.0801 116.5846 288° West  Level Estimated
06:23PM 40.0801 116.5846 288° West  Level Estimated
06:24PM 40.0801 116.5846 288° West  Level Estimated
06:25PM 40.0801 116.5846 288° West  Level Estimated